Etusivu
METAR-TAF:

METAR-TAF

Lentoasemat :

Kuwaitin kansainvälinen lentoasema

Kuwait, Kuwait

Leveyspiiri: 29-13N, Pituuspiiri: 047-59E, korkeus merenpinnasta: 55 m

Tämänhetkinen sää

Tämä raportti tehtiin 46 minuuttia sitten, kello 04.00 UTC
Tuuli 9 kn pohjoisen/luoteesta
Lämpötila 8°C
Kosteus 81%
Ilmanpaine 1024 hPa
Näkyvyys: 7000 m

METAR: OKBK 260400Z 33009KT 7000 NSC 08/05 Q1024 NOSIG

Aika: 07:46 (04:46 UTC)

Sääennuste

Tämä raportti tehtiin 6 tuntia ja 1 minuuttia sitten, kello 22.45 UTC
Ennuste voimassa 26. päivästä klo 00 UTC - 27. päivään klo 06 UTC
Tuuli 12 kn luoteesta puuskistuen 25 kn:hen
Näkyvyys: 6000 m
Ajoittain
26. päivästä klo 06 UTC - 26. päivään klo 18 UTC
Näkyvyys: 2000 m
pölymyrsky

TAF: OKBK 252245Z 2600/2706 32012G25KT 6000 NSC TEMPO 2606/2618 2000 BLDU

Säähavainnot ja -ennusteet yli 4000 lentoasemalta (METAR- ja TAF-raportit).

Käytössä olevat sääasemat on merkitty karttaan keltaisilla ja punaisilla pisteillä.

Aseta hiiri pisteen päälle nähdäksesi sääaseman nimen.

Klikkaa sitten nähdäksesi säähavainnot ja -ennusteet.

Kartan vaihtaminen: klikkaa mustalla rastilla varustettuja vihreitä pisteitä, niin voit zoomata sisään; viivalla varustettua vihreää pistettä, niin voit zoomata ulos tai vihreitä nuolia, niin pääset viereisille kartoille.


METAR-TAF: